createdAt,value
2022-11-05T00:00:35.071Z,77.36
2022-11-05T00:03:20.062Z,76.99
2022-11-05T00:06:08.056Z,76.93
2022-11-05T00:08:53.359Z,77.27
2022-11-05T00:11:39.915Z,77.20
2022-11-05T00:14:24.909Z,77.13
2022-11-05T00:16:51.340Z,77.13
2022-11-05T00:19:17.784Z,76.61
2022-11-05T00:22:02.508Z,76.29
2022-11-05T00:24:47.299Z,76.49
2022-11-05T00:27:13.736Z,76.89
2022-11-05T00:29:40.195Z,76.59
2022-11-05T00:32:06.699Z,76.85
2022-11-05T00:34:33.265Z,77.04
2022-11-05T00:36:59.700Z,77.01
2022-11-05T00:39:26.229Z,77.03
2022-11-05T00:42:11.058Z,77.37
2022-11-05T00:44:56.007Z,77.52
2022-11-05T00:47:40.849Z,77.95
2022-11-05T00:50:07.642Z,77.55
2022-11-05T00:52:52.432Z,77.28
2022-11-05T00:55:18.944Z,77.28
2022-11-05T00:57:45.404Z,77.72
2022-11-05T01:00:12.559Z,77.74
2022-11-05T01:02:39.186Z,77.92
2022-11-05T01:05:06.216Z,78.19
2022-11-05T01:07:32.667Z,78.45
2022-11-05T01:09:59.140Z,79.06
2022-11-05T01:12:25.559Z,79.08
2022-11-05T01:14:52.017Z,78.95
2022-11-05T01:17:18.466Z,78.98
2022-11-05T01:19:44.929Z,78.85
2022-11-05T01:22:12.605Z,79.00
2022-11-05T01:24:39.126Z,79.48
2022-11-05T01:27:05.559Z,79.39
2022-11-05T01:29:32.055Z,79.39
2022-11-05T01:31:58.529Z,79.09
2022-11-05T01:34:24.982Z,78.67
2022-11-05T01:36:51.425Z,78.50
2022-11-05T01:39:17.878Z,78.61
2022-11-05T01:41:44.391Z,78.57
2022-11-05T01:44:49.204Z,78.76
2022-11-05T01:47:33.866Z,78.59
2022-11-05T01:50:04.115Z,78.59
2022-11-05T01:52:34.940Z,79.47
2022-11-05T01:55:02.894Z,79.48
2022-11-05T01:57:30.683Z,78.88
2022-11-05T01:59:59.725Z,79.48
2022-11-05T02:02:26.829Z,79.57
2022-11-05T02:04:59.080Z,79.79
2022-11-05T02:07:27.635Z,79.21
2022-11-05T02:10:15.631Z,79.01
2022-11-05T02:12:44.828Z,79.66
2022-11-05T02:15:13.141Z,79.87
2022-11-05T02:18:01.119Z,80.60
2022-11-05T02:20:41.587Z,80.36
2022-11-05T02:23:40.133Z,80.43
2022-11-05T02:26:28.396Z,79.81
2022-11-05T02:29:22.181Z,79.66
2022-11-05T02:31:59.421Z,79.69
2022-11-05T02:34:53.889Z,79.12
2022-11-05T02:37:41.402Z,79.13
2022-11-05T02:40:20.630Z,78.86
2022-11-05T02:43:16.170Z,78.96
2022-11-05T02:45:48.870Z,79.00
2022-11-05T02:48:47.557Z,78.61
2022-11-05T02:51:28.456Z,78.73
2022-11-05T02:54:19.687Z,79.09
2022-11-05T02:56:49.982Z,78.89
2022-11-05T02:59:16.439Z,79.14
2022-11-05T03:01:45.559Z,79.57
2022-11-05T03:04:14.666Z,79.30
2022-11-05T03:06:53.108Z,79.21
2022-11-05T03:09:57.326Z,79.56
2022-11-05T03:12:30.306Z,78.79
2022-11-05T03:15:27.336Z,78.73
2022-11-05T03:18:26.839Z,78.49
2022-11-05T03:21:11.930Z,78.97
2022-11-05T03:23:47.988Z,78.14
2022-11-05T03:26:23.485Z,78.50
2022-11-05T03:29:03.350Z,79.10
2022-11-05T03:31:31.180Z,78.29
2022-11-05T03:33:59.865Z,78.54
2022-11-05T03:36:31.409Z,78.24
2022-11-05T03:39:02.854Z,78.28
2022-11-05T03:41:29.545Z,78.06
2022-11-05T03:43:59.273Z,78.62
2022-11-05T03:46:30.308Z,78.76
2022-11-05T03:49:01.682Z,78.92
2022-11-05T03:56:04.019Z,78.17
2022-11-05T03:58:31.952Z,78.21
2022-11-05T04:01:02.511Z,78.51
2022-11-05T04:03:36.016Z,78.53
2022-11-05T04:06:23.491Z,78.76
2022-11-05T04:09:08.256Z,79.06
2022-11-05T04:11:53.175Z,79.09
2022-11-05T04:14:19.784Z,78.61
2022-11-05T04:17:04.858Z,78.81
2022-11-05T04:19:49.810Z,78.16
2022-11-05T04:22:34.542Z,78.09
2022-11-05T04:25:00.945Z,77.97
2022-11-05T04:27:27.377Z,78.40
2022-11-05T04:30:12.411Z,78.69
2022-11-05T04:32:38.844Z,79.26
2022-11-05T04:35:05.634Z,78.91
2022-11-05T04:37:32.075Z,78.51
2022-11-05T04:39:58.552Z,78.76
2022-11-05T04:42:24.936Z,78.44
2022-11-05T04:44:51.369Z,78.90
2022-11-05T04:47:17.801Z,79.06
2022-11-05T04:49:44.201Z,79.63
2022-11-05T04:52:10.590Z,79.34
2022-11-05T04:54:36.989Z,78.86
2022-11-05T04:57:03.507Z,79.41
2022-11-05T04:59:29.900Z,79.35
2022-11-05T05:01:56.333Z,78.19
2022-11-05T05:04:22.766Z,78.63
2022-11-05T05:06:49.158Z,79.03
2022-11-05T05:09:15.668Z,78.59
2022-11-05T05:11:42.101Z,78.52
2022-11-05T05:14:08.835Z,79.32
2022-11-05T05:16:35.267Z,78.97
2022-11-05T05:19:01.808Z,79.12
2022-11-05T05:21:40.446Z,79.58
2022-11-05T05:24:13.423Z,79.68
2022-11-05T05:26:43.289Z,79.46
2022-11-05T05:29:10.777Z,78.87
2022-11-05T05:31:37.614Z,79.46
2022-11-05T05:34:05.321Z,78.51
2022-11-05T05:36:31.960Z,78.85
2022-11-05T05:38:58.434Z,78.93
2022-11-05T05:41:25.227Z,79.80
2022-11-05T05:43:51.672Z,79.33
2022-11-05T05:46:19.301Z,79.50
2022-11-05T05:48:50.379Z,79.71
2022-11-05T05:51:17.899Z,79.39
2022-11-05T05:53:44.792Z,79.47
2022-11-05T05:56:14.717Z,80.39
2022-11-05T05:58:41.380Z,79.91
2022-11-05T06:01:18.860Z,79.40
2022-11-05T06:03:47.120Z,79.72
2022-11-05T06:06:14.809Z,79.45
2022-11-05T06:08:42.137Z,79.87
2022-11-05T06:11:08.683Z,79.73
2022-11-05T06:13:35.894Z,79.80
2022-11-05T06:16:04.970Z,80.22
2022-11-05T06:18:32.731Z,79.74
2022-11-05T06:21:04.392Z,79.97
2022-11-05T06:23:35.073Z,79.72
2022-11-05T06:26:03.025Z,80.01
2022-11-05T06:28:29.703Z,80.16
2022-11-05T06:30:57.470Z,79.95
2022-11-05T06:33:24.231Z,80.19
2022-11-05T06:35:50.909Z,79.92
2022-11-05T06:38:17.319Z,80.49
2022-11-05T06:40:43.794Z,80.94
2022-11-05T06:43:10.575Z,81.10
2022-11-05T06:45:37.160Z,81.11
2022-11-05T06:48:03.742Z,80.74
2022-11-05T06:50:30.183Z,80.68
2022-11-05T06:52:58.234Z,81.11
2022-11-05T06:55:26.973Z,81.35
2022-11-05T06:57:53.823Z,81.69
2022-11-05T07:00:20.413Z,81.74
2022-11-05T07:02:47.011Z,82.15
2022-11-05T07:05:14.871Z,82.11
2022-11-05T07:07:45.495Z,81.90
2022-11-05T07:10:16.034Z,81.91
2022-11-05T07:12:42.992Z,82.00
2022-11-05T07:15:11.424Z,82.53
2022-11-05T07:17:38.335Z,82.52
2022-11-05T07:20:05.906Z,83.20
2022-11-05T07:22:33.615Z,83.10
2022-11-05T07:25:00.137Z,83.73
2022-11-05T07:27:26.742Z,83.86
2022-11-05T07:29:53.200Z,83.69
2022-11-05T07:32:19.575Z,83.57
2022-11-05T07:34:46.040Z,83.43
2022-11-05T07:37:12.465Z,84.17
2022-11-05T07:39:38.885Z,84.05
2022-11-05T07:42:05.301Z,84.58
2022-11-05T07:44:33.556Z,84.78
2022-11-05T07:46:59.971Z,84.94
2022-11-05T07:49:26.407Z,84.66
2022-11-05T07:51:53.549Z,84.99
2022-11-05T07:54:19.968Z,84.75
2022-11-05T07:56:47.722Z,84.97
2022-11-05T07:59:14.159Z,84.92
2022-11-05T08:01:40.789Z,84.47
2022-11-05T08:04:07.377Z,84.21
2022-11-05T08:06:33.815Z,84.50
2022-11-05T08:09:00.255Z,83.74
2022-11-05T08:11:26.692Z,83.70
2022-11-05T08:13:53.130Z,83.42
2022-11-05T08:16:19.568Z,83.14
2022-11-05T08:18:46.894Z,82.54
2022-11-05T08:21:13.286Z,81.92
2022-11-05T08:23:39.682Z,81.91
2022-11-05T08:26:06.129Z,81.66
2022-11-05T08:28:32.562Z,82.49
2022-11-05T08:30:59.077Z,82.87
2022-11-05T08:33:25.974Z,83.18
2022-11-05T08:35:52.414Z,83.22
2022-11-05T08:38:19.631Z,83.07
2022-11-05T08:40:55.015Z,82.81
2022-11-05T08:43:22.060Z,83.73
2022-11-05T08:45:48.555Z,83.15
2022-11-05T08:48:18.017Z,83.35
2022-11-05T08:50:46.813Z,82.58
2022-11-05T08:53:14.178Z,82.14
2022-11-05T08:55:41.118Z,81.34
2022-11-05T08:58:12.497Z,81.71
2022-11-05T09:00:39.750Z,79.90
2022-11-05T09:03:08.832Z,80.28
2022-11-05T09:05:40.097Z,79.07
2022-11-05T09:08:12.246Z,79.41
2022-11-05T09:10:39.700Z,79.31
2022-11-05T09:13:06.454Z,78.89
2022-11-05T09:15:33.750Z,78.87
2022-11-05T09:18:00.194Z,78.48
2022-11-05T09:20:26.637Z,78.27
2022-11-05T09:22:53.319Z,78.10
2022-11-05T09:25:19.788Z,78.69
2022-11-05T09:27:46.190Z,77.84
2022-11-05T09:30:13.720Z,77.10
2022-11-05T09:32:40.431Z,77.07
2022-11-05T09:35:07.691Z,77.27
2022-11-05T09:37:34.836Z,76.98
2022-11-05T09:40:01.339Z,76.74
2022-11-05T09:42:52.308Z,77.29
2022-11-05T09:45:22.133Z,77.92
2022-11-05T09:48:16.614Z,77.41
2022-11-05T09:50:45.392Z,75.93
2022-11-05T09:53:17.537Z,76.69
2022-11-05T09:55:48.695Z,76.89
2022-11-05T09:58:28.566Z,76.10
2022-11-05T10:00:56.991Z,75.67
2022-11-05T10:03:26.237Z,75.78
2022-11-05T10:05:54.473Z,75.92
2022-11-05T10:08:28.842Z,76.60
2022-11-05T10:11:01.462Z,75.60
2022-11-05T10:13:43.376Z,76.39
2022-11-05T10:16:40.998Z,76.47
2022-11-05T10:19:22.042Z,75.22
2022-11-05T10:24:35.233Z,75.01
2022-11-05T10:27:02.084Z,74.87
2022-11-05T10:29:34.291Z,74.78
2022-11-05T10:32:05.473Z,74.78
2022-11-05T10:34:35.935Z,73.96
2022-11-05T10:37:02.411Z,74.55
2022-11-05T10:39:31.222Z,73.99
2022-11-05T10:42:30.239Z,74.22
2022-11-05T10:45:18.702Z,74.26
2022-11-05T10:48:12.785Z,74.04
2022-11-05T10:50:39.909Z,73.75
2022-11-05T10:53:22.208Z,73.57
2022-11-05T10:55:51.071Z,74.52
2022-11-05T10:58:30.931Z,74.54
2022-11-05T11:00:57.328Z,74.42
2022-11-05T11:03:42.315Z,75.46
2022-11-05T11:06:24.168Z,75.63
2022-11-05T11:08:52.541Z,74.30
2022-11-05T11:11:27.460Z,74.13
2022-11-05T11:13:56.819Z,74.12
2022-11-05T11:16:28.774Z,74.84
2022-11-05T11:19:00.919Z,75.42
2022-11-05T11:21:29.796Z,75.79
2022-11-05T11:24:06.478Z,75.72
2022-11-05T11:26:38.246Z,75.79
2022-11-05T11:29:04.597Z,75.74
2022-11-05T11:31:33.164Z,74.69
2022-11-05T11:34:04.132Z,75.52
2022-11-05T11:36:45.241Z,75.95
2022-11-05T11:39:19.941Z,75.86
2022-11-05T11:41:51.604Z,75.85
2022-11-05T11:44:23.111Z,76.53
2022-11-05T11:46:52.185Z,76.66
2022-11-05T11:49:42.000Z,75.68
2022-11-05T11:52:15.599Z,74.81
2022-11-05T11:54:42.202Z,74.92
2022-11-05T11:57:24.204Z,75.23
2022-11-05T12:00:08.167Z,74.92
2022-11-05T12:03:18.169Z,76.00
2022-11-05T12:05:50.778Z,74.68
2022-11-05T12:08:29.490Z,75.23
2022-11-05T12:11:34.470Z,75.34
2022-11-05T12:14:34.620Z,75.12
2022-11-05T12:17:25.490Z,75.23
2022-11-05T12:20:33.860Z,74.07
2022-11-05T12:23:21.854Z,73.95
2022-11-05T12:26:22.179Z,73.51
2022-11-05T12:29:35.523Z,73.69
2022-11-05T12:32:22.218Z,72.19
2022-11-05T12:35:18.094Z,73.25
2022-11-05T12:38:10.920Z,72.44
2022-11-05T12:40:42.847Z,72.27
2022-11-05T12:43:31.020Z,71.81
2022-11-05T12:46:06.476Z,71.76
2022-11-05T12:48:59.526Z,72.75
2022-11-05T12:51:53.816Z,73.51
2022-11-05T12:54:45.048Z,73.72
2022-11-05T12:57:13.835Z,72.96
2022-11-05T12:59:43.942Z,72.52
2022-11-05T13:02:13.238Z,73.14
2022-11-05T13:04:51.454Z,71.44
2022-11-05T13:07:24.159Z,69.21
2022-11-05T13:10:05.903Z,66.94
2022-11-05T13:12:37.388Z,65.10
2022-11-05T13:15:16.011Z,66.04
2022-11-05T13:17:58.389Z,65.84
2022-11-05T13:20:28.937Z,66.17
2022-11-05T13:23:03.971Z,67.47
2022-11-05T13:25:37.660Z,67.46
2022-11-05T13:28:31.755Z,68.00
2022-11-05T13:31:01.675Z,68.80
2022-11-05T13:33:44.389Z,67.88
2022-11-05T13:36:38.866Z,69.03
2022-11-05T13:39:11.563Z,68.52
2022-11-05T13:42:04.841Z,67.97
2022-11-05T13:44:52.706Z,68.83
2022-11-05T13:47:54.416Z,66.92
2022-11-05T13:50:45.221Z,68.99
2022-11-05T13:53:59.681Z,68.08
2022-11-05T13:56:49.052Z,68.60
2022-11-05T14:00:04.215Z,68.65
2022-11-05T14:02:51.771Z,66.54
2022-11-05T14:05:39.890Z,64.43
2022-11-05T14:08:26.718Z,64.31
2022-11-05T14:11:02.258Z,64.82
2022-11-05T14:13:39.028Z,65.01
2022-11-05T14:16:09.572Z,64.97
2022-11-05T14:19:19.641Z,64.16
2022-11-05T14:21:51.498Z,64.22
2022-11-05T14:24:22.688Z,64.13
2022-11-05T14:27:00.977Z,64.78
2022-11-05T14:29:42.449Z,65.30
2022-11-05T14:32:18.548Z,65.62
2022-11-05T14:34:47.037Z,66.05
2022-11-05T14:37:13.382Z,63.97
2022-11-05T14:39:41.148Z,63.46
2022-11-05T14:42:15.106Z,64.13
2022-11-05T14:45:01.091Z,63.75
2022-11-05T14:47:41.544Z,64.27
2022-11-05T14:50:17.226Z,65.24
2022-11-05T14:52:52.423Z,64.78
2022-11-05T14:55:37.705Z,65.32
2022-11-05T14:58:25.682Z,65.01
2022-11-05T15:00:52.827Z,65.89
2022-11-05T15:04:02.705Z,66.57
2022-11-05T15:06:36.652Z,65.93
2022-11-05T15:09:03.288Z,66.49
2022-11-05T15:11:32.905Z,66.30
2022-11-05T15:14:18.264Z,66.37
2022-11-05T15:16:51.877Z,67.75
2022-11-05T15:19:30.803Z,67.19
2022-11-05T15:22:01.003Z,66.64
2022-11-05T15:24:28.255Z,66.01
2022-11-05T15:26:58.603Z,66.05
2022-11-05T15:29:28.416Z,65.33
2022-11-05T15:31:56.396Z,66.11
2022-11-05T15:34:33.364Z,66.38
2022-11-05T15:37:03.080Z,66.29
2022-11-05T15:39:38.436Z,67.27
2022-11-05T15:42:13.642Z,67.52
2022-11-05T15:44:45.618Z,67.88
2022-11-05T15:47:16.776Z,67.58
2022-11-05T15:49:46.253Z,69.02
2022-11-05T15:52:15.059Z,69.81
2022-11-05T15:54:42.419Z,70.20
2022-11-05T15:57:23.914Z,70.46
2022-11-05T15:59:50.847Z,70.76
2022-11-05T16:02:23.187Z,70.73
2022-11-05T16:04:51.052Z,70.91
2022-11-05T16:07:18.546Z,71.08
2022-11-05T16:09:57.799Z,71.38
2022-11-05T16:12:32.020Z,71.83
2022-11-05T16:15:04.269Z,72.00
2022-11-05T16:17:48.031Z,72.49
2022-11-05T16:20:35.118Z,72.95
2022-11-05T16:23:07.156Z,73.10
2022-11-05T16:25:42.425Z,73.52
2022-11-05T16:28:30.159Z,73.88
2022-11-05T16:31:05.307Z,74.04
2022-11-05T16:33:44.703Z,74.68
2022-11-05T16:36:11.882Z,74.58
2022-11-05T16:38:38.616Z,74.47
2022-11-05T16:41:05.480Z,74.58
2022-11-05T16:43:34.751Z,74.71
2022-11-05T16:46:01.848Z,74.56
2022-11-05T16:48:28.383Z,75.23
2022-11-05T16:50:54.921Z,75.37
2022-11-05T16:53:21.739Z,75.35
2022-11-05T16:55:48.880Z,75.57
2022-11-05T16:58:20.791Z,75.44
2022-11-05T17:00:49.653Z,75.59
2022-11-05T17:03:16.389Z,74.39
2022-11-05T17:05:43.408Z,75.02
2022-11-05T17:08:10.261Z,74.12
2022-11-05T17:10:37.032Z,74.84
2022-11-05T17:13:03.633Z,74.17
2022-11-05T17:15:35.502Z,74.71
2022-11-05T17:18:03.822Z,74.24
2022-11-05T17:20:40.672Z,74.42
2022-11-05T17:23:13.767Z,74.92
2022-11-05T17:25:42.169Z,75.21
2022-11-05T17:28:09.450Z,75.24
2022-11-05T17:30:38.610Z,75.29
2022-11-05T17:33:07.029Z,74.86
2022-11-05T17:35:33.709Z,75.05
2022-11-05T17:38:00.445Z,75.28
2022-11-05T17:40:28.408Z,75.68
2022-11-05T17:42:55.063Z,75.77
2022-11-05T17:45:21.691Z,75.23
2022-11-05T17:47:48.271Z,74.95
2022-11-05T17:50:15.996Z,75.10
2022-11-05T17:52:43.181Z,76.12
2022-11-05T17:55:16.369Z,76.08
2022-11-05T17:57:50.771Z,74.86
2022-11-05T18:00:21.204Z,75.03
2022-11-05T18:02:49.609Z,73.95
2022-11-05T18:05:21.618Z,74.38
2022-11-05T18:07:49.183Z,75.04
2022-11-05T18:10:16.531Z,75.78
2022-11-05T18:12:44.024Z,76.07
2022-11-05T18:15:11.555Z,75.87
2022-11-05T18:17:38.248Z,75.38
2022-11-05T18:20:11.704Z,74.95
2022-11-05T18:22:41.577Z,75.24
2022-11-05T18:25:09.674Z,75.48
2022-11-05T18:27:36.722Z,75.83
2022-11-05T18:30:04.201Z,76.10
2022-11-05T18:32:30.930Z,76.93
2022-11-05T18:34:57.574Z,78.20
2022-11-05T18:37:24.645Z,78.55
2022-11-05T18:39:52.458Z,78.11
2022-11-05T18:42:20.184Z,77.96
2022-11-05T18:44:46.901Z,77.65
2022-11-05T18:47:13.894Z,77.57
2022-11-05T18:49:40.532Z,78.03
2022-11-05T18:52:07.028Z,78.16
2022-11-05T18:54:33.448Z,78.22
2022-11-05T18:56:59.885Z,78.38
2022-11-05T18:59:42.221Z,78.33
2022-11-05T19:02:11.002Z,78.76
2022-11-05T19:04:37.767Z,78.90
2022-11-05T19:07:05.889Z,78.87
2022-11-05T19:09:37.058Z,78.86
2022-11-05T19:12:05.028Z,79.23
2022-11-05T19:14:31.519Z,78.80
2022-11-05T19:16:58.991Z,78.85
2022-11-05T19:19:25.935Z,78.73
2022-11-05T19:21:52.611Z,79.03
2022-11-05T19:24:19.148Z,79.37
2022-11-05T19:26:46.600Z,79.38
2022-11-05T19:29:13.090Z,78.74
2022-11-05T19:31:39.488Z,78.82
2022-11-05T19:34:05.979Z,78.21
2022-11-05T19:36:33.276Z,78.51
2022-11-05T19:39:02.154Z,78.37
2022-11-05T19:41:29.114Z,78.36
2022-11-05T19:43:58.120Z,78.88
2022-11-05T19:46:25.041Z,78.91
2022-11-05T19:48:51.625Z,79.01
2022-11-05T19:51:26.525Z,77.79
2022-11-05T19:53:53.527Z,77.66
2022-11-05T19:56:21.466Z,77.64
2022-11-05T19:58:48.886Z,77.11
2022-11-05T20:01:17.544Z,77.55
2022-11-05T20:03:44.276Z,77.17
2022-11-05T20:06:13.545Z,77.27
2022-11-05T20:08:59.738Z,77.34
2022-11-05T20:11:27.801Z,77.95
2022-11-05T20:13:54.229Z,78.01
2022-11-05T20:16:29.439Z,77.89
2022-11-05T20:18:57.137Z,78.21
2022-11-05T20:21:23.650Z,76.76
2022-11-05T20:23:50.121Z,76.59
2022-11-05T20:26:16.787Z,76.96
2022-11-05T20:28:48.092Z,76.99
2022-11-05T20:31:34.734Z,76.98
2022-11-05T20:34:01.399Z,76.54
2022-11-05T20:36:27.947Z,76.56
2022-11-05T20:38:57.918Z,76.51
2022-11-05T20:41:25.693Z,76.74
2022-11-05T20:43:52.159Z,77.03
2022-11-05T20:46:20.657Z,77.04
2022-11-05T20:48:47.114Z,77.40
2022-11-05T20:51:16.088Z,77.70
2022-11-05T20:53:43.424Z,77.90
2022-11-05T20:56:22.616Z,77.74
2022-11-05T20:58:49.520Z,76.53
2022-11-05T21:01:16.902Z,77.09
2022-11-05T21:03:47.719Z,76.70
2022-11-05T21:06:14.848Z,76.09
2022-11-05T21:08:41.606Z,76.02
2022-11-05T21:11:09.039Z,76.27
2022-11-05T21:13:36.090Z,76.84
2022-11-05T21:16:06.063Z,77.66
2022-11-05T21:18:34.561Z,76.61
2022-11-05T21:21:08.634Z,77.02
2022-11-05T21:23:35.457Z,77.09
2022-11-05T21:26:10.674Z,77.50
2022-11-05T21:28:39.162Z,77.47
2022-11-05T21:31:07.191Z,78.34
2022-11-05T21:33:34.056Z,79.04
2022-11-05T21:36:09.497Z,79.34
2022-11-05T21:38:36.014Z,78.76
2022-11-05T21:41:03.044Z,78.63
2022-11-05T21:43:29.827Z,78.55
2022-11-05T21:45:59.983Z,77.97
2022-11-05T21:48:26.470Z,78.58
2022-11-05T21:51:12.289Z,78.03
2022-11-05T21:53:58.051Z,77.07
2022-11-05T21:56:45.074Z,77.61
2022-11-05T21:59:32.331Z,77.70
2022-11-05T22:02:02.631Z,77.88
2022-11-05T22:04:36.428Z,78.14
2022-11-05T22:07:04.075Z,77.70
2022-11-05T22:09:30.676Z,76.99
2022-11-05T22:11:57.275Z,77.17
2022-11-05T22:14:23.947Z,77.67
2022-11-05T22:16:50.428Z,77.33
2022-11-05T22:19:17.390Z,76.84
2022-11-05T22:21:43.898Z,77.17
2022-11-05T22:24:10.473Z,77.78
2022-11-05T22:26:38.173Z,78.27
2022-11-05T22:29:05.382Z,77.78
2022-11-05T22:31:36.270Z,78.41
2022-11-05T22:34:04.501Z,77.95
2022-11-05T22:36:30.924Z,77.89
2022-11-05T22:38:57.345Z,78.63
2022-11-05T22:41:23.743Z,78.54
2022-11-05T22:43:50.205Z,77.56
2022-11-05T22:46:20.224Z,77.13
2022-11-05T22:48:47.536Z,77.36
2022-11-05T22:51:17.655Z,77.16
2022-11-05T22:53:44.121Z,77.35
2022-11-05T22:56:13.283Z,77.51
2022-11-05T22:58:39.813Z,77.29
2022-11-05T23:01:08.146Z,77.15
2022-11-05T23:03:34.976Z,77.05
2022-11-05T23:06:06.067Z,78.08
2022-11-05T23:08:51.564Z,77.60
2022-11-05T23:11:38.362Z,78.52
2022-11-05T23:14:07.130Z,79.01
2022-11-05T23:16:52.695Z,79.28
2022-11-05T23:19:37.394Z,78.73
2022-11-05T23:22:22.820Z,79.17
2022-11-05T23:24:49.273Z,79.22
2022-11-05T23:27:15.699Z,79.07
2022-11-05T23:29:42.159Z,78.81
2022-11-05T23:32:23.904Z,78.55
2022-11-05T23:34:55.024Z,78.76
2022-11-05T23:37:41.952Z,78.79
2022-11-05T23:40:10.299Z,78.76
2022-11-05T23:42:55.073Z,78.56
2022-11-05T23:45:39.974Z,78.64
2022-11-05T23:48:27.616Z,79.49
2022-11-05T23:50:59.476Z,78.85
2022-11-05T23:53:26.892Z,79.27
2022-11-05T23:55:53.654Z,78.97
2022-11-05T23:58:20.076Z,79.32
